Time;durP1;ratioP1;P1;durP2;ratioP2;P2;SDS_P1;SDS_P2;PMS_P1;PMS_P2;Temp;Humidity;BMP_temperature;BMP_pressure;BME280_temperature;BME280_humidity;BME280_pressure;Samples;Min_cycle;Max_cycle;Signal;HPM_P1;HPM_P2
2023/02/28 00:01:39;;;;;;;19.30;11.70;;;;;;;0.34;100.00;98133.80;110424;1248;58837;-68
2023/02/28 00:04:09;;;;;;;19.80;11.70;;;;;;;0.35;100.00;98133.94;110350;1242;71086;-67
2023/02/28 00:06:38;;;;;;;16.50;10.60;;;;;;;0.36;100.00;98138.89;110454;1242;69056;-67
2023/02/28 00:09:07;;;;;;;19.20;10.60;;;;;;;0.36;100.00;98140.42;110327;1248;68873;-68
2023/02/28 00:11:37;;;;;;;15.70;9.60;;;;;;;0.35;100.00;98138.40;110474;1249;58966;-69
2023/02/28 00:14:06;;;;;;;19.80;10.80;;;;;;;0.28;100.00;98135.29;110483;1241;58828;-68
2023/02/28 00:16:36;;;;;;;18.70;11.60;;;;;;;0.27;100.00;98140.45;110457;1242;71036;-68
2023/02/28 00:19:05;;;;;;;14.40;9.00;;;;;;;0.28;100.00;98140.95;110482;1241;69200;-69
2023/02/28 00:21:35;;;;;;;15.80;9.70;;;;;;;0.29;100.00;98144.69;110332;1241;69885;-67
2023/02/28 00:24:04;;;;;;;14.40;9.10;;;;;;;0.30;100.00;98151.02;110361;1241;58812;-67
2023/02/28 00:26:33;;;;;;;15.00;9.50;;;;;;;0.30;100.00;98150.68;110347;1241;58938;-67
2023/02/28 00:29:02;;;;;;;11.60;7.90;;;;;;;0.31;100.00;98148.61;110503;1241;70228;-68
2023/02/28 00:31:32;;;;;;;;;;;;;;;0.31;100.00;98148.25;110384;1242;69110;-69
2023/02/28 00:34:01;;;;;;;15.10;8.80;;;;;;;0.31;100.00;98151.00;110434;1243;69771;-67
2023/02/28 00:36:32;;;;;;;16.50;9.20;;;;;;;0.28;100.00;98152.61;110325;1244;58941;-68
2023/02/28 00:39:04;;;;;;;15.60;9.60;;;;;;;0.25;100.00;98151.48;110328;1242;59128;-68
2023/02/28 00:41:34;;;;;;;17.90;11.00;;;;;;;0.24;100.00;98152.67;110520;1241;70118;-67
2023/02/28 00:44:03;;;;;;;17.80;11.30;;;;;;;0.22;100.00;98153.74;110305;1243;69126;-68
2023/02/28 00:46:33;;;;;;;15.10;10.00;;;;;;;0.22;100.00;98153.23;110312;1242;68558;-69
2023/02/28 00:49:03;;;;;;;19.20;11.20;;;;;;;0.24;100.00;98148.23;110144;1244;58932;-68
2023/02/28 00:51:32;;;;;;;17.00;9.90;;;;;;;0.21;100.00;98140.58;110470;1240;58899;-68
2023/02/28 00:54:01;;;;;;;20.80;12.40;;;;;;;0.19;100.00;98143.34;110347;1242;70632;-68
2023/02/28 00:56:31;;;;;;;17.70;11.90;;;;;;;0.19;100.00;98142.34;110414;1242;69101;-68
2023/02/28 00:59:01;;;;;;;21.10;12.60;;;;;;;0.17;100.00;98148.02;110535;1242;69844;-68
2023/02/28 01:01:31;;;;;;;21.80;12.90;;;;;;;0.17;100.00;98154.52;110499;1241;58877;-68
2023/02/28 01:04:01;;;;;;;;;;;;;;;0.17;100.00;98162.07;110197;1240;58861;-67
2023/02/28 01:06:31;;;;;;;17.20;10.30;;;;;;;0.18;100.00;98158.28;110508;1242;70639;-68
2023/02/28 01:09:00;;;;;;;21.30;12.80;;;;;;;0.17;100.00;98161.90;110431;1240;69224;-67
2023/02/28 01:11:32;;;;;;;18.00;10.90;;;;;;;0.16;100.00;98164.14;110504;1252;69887;-68
2023/02/28 01:14:03;;;;;;;20.10;11.40;;;;;;;0.13;100.00;98159.92;110243;1242;58933;-68
2023/02/28 01:16:33;;;;;;;18.90;10.80;;;;;;;0.14;100.00;98160.60;110244;1242;58928;-68
2023/02/28 01:19:04;;;;;;;18.90;11.10;;;;;;;0.14;100.00;98163.67;110217;1241;69828;-68
2023/02/28 01:21:34;;;;;;;18.00;11.10;;;;;;;0.15;100.00;98165.39;110486;1242;69114;-68
2023/02/28 01:24:05;;;;;;;18.90;11.70;;;;;;;0.15;100.00;98168.46;110150;1244;69200;-68
2023/02/28 01:26:37;;;;;;;17.90;10.80;;;;;;;0.16;100.00;98171.85;110414;1242;58858;-68
2023/02/28 01:29:08;;;;;;;17.90;10.60;;;;;;;0.19;100.00;98172.86;110369;1241;58940;-69
2023/02/28 01:31:38;;;;;;;18.50;11.00;;;;;;;0.20;100.00;98172.15;110371;1247;70888;-68
2023/02/28 01:34:10;;;;;;;18.10;11.20;;;;;;;0.16;100.00;98166.20;110176;1241;68593;-67
2023/02/28 01:36:42;;;;;;;22.10;12.00;;;;;;;0.13;100.00;98159.41;110404;1242;69108;-67
2023/02/28 01:39:12;;;;;;;;;;;;;;;0.09;100.00;98156.57;110412;1241;58900;-67
2023/02/28 01:41:42;;;;;;;;;;;;;;;0.07;100.00;98152.67;110337;1244;58867;-67
2023/02/28 01:44:50;;;;;;;24.10;12.90;;;;;;;0.03;100.00;98152.75;110311;1242;69833;-67
2023/02/28 01:47:23;;;;;;;21.90;11.60;;;;;;;-0.00;100.00;98149.55;110448;1240;69124;-68
2023/02/28 01:49:53;;;;;;;22.10;13.60;;;;;;;-0.02;100.00;98155.59;110319;1245;69246;-68
2023/02/28 01:52:24;;;;;;;31.40;15.20;;;;;;;0.00;100.00;98156.57;110472;1241;59236;-68
2023/02/28 01:54:59;;;;;;;28.50;14.80;;;;;;;0.02;100.00;98153.12;110496;1241;58890;-68
2023/02/28 01:57:37;;;;;;;31.60;16.10;;;;;;;0.03;100.00;98155.66;110165;1244;70430;-69
2023/02/28 02:00:13;;;;;;;30.80;15.00;;;;;;;0.04;100.00;98157.17;110480;1242;67527;-68
2023/02/28 02:02:53;;;;;;;26.20;13.60;;;;;;;0.05;100.00;98161.27;110274;1247;69695;-68
2023/02/28 02:05:26;;;;;;;25.10;12.70;;;;;;;0.07;100.00;98158.85;110558;1242;58948;-68
2023/02/28 02:08:01;;;;;;;27.80;14.50;;;;;;;0.10;100.00;98157.94;110480;1242;58952;-68
2023/02/28 02:11:00;;;;;;;31.00;14.50;;;;;;;0.12;100.00;98155.66;109744;1242;940148;-68
2023/02/28 02:13:53;;;;;;;29.50;14.90;;;;;;;0.15;100.00;98150.98;110176;1245;69223;-68
2023/02/28 02:16:49;;;;;;;23.20;13.00;;;;;;;0.18;100.00;98151.44;110399;1241;69296;-68
2023/02/28 02:19:47;;;;;;;27.70;14.70;;;;;;;0.19;100.00;98158.43;110464;1246;58886;-68
2023/02/28 02:22:31;;;;;;;30.30;15.10;;;;;;;0.20;100.00;98162.19;110393;1243;58890;-69
2023/02/28 02:25:26;;;;;;;28.70;14.30;;;;;;;0.21;100.00;98159.95;110340;1244;70495;-69
2023/02/28 02:28:18;;;;;;;30.80;13.60;;;;;;;0.19;100.00;98158.27;110335;1242;69091;-68
2023/02/28 02:30:48;;;;;;;32.40;14.20;;;;;;;0.16;100.00;98161.93;110317;1241;69881;-68
2023/02/28 02:33:28;;;;;;;;;;;;;;;0.17;100.00;98166.53;110150;1246;58970;-68
2023/02/28 02:36:03;;;;;;;28.50;13.60;;;;;;;0.18;100.00;98168.21;110347;1240;58877;-69
2023/02/28 02:38:55;;;;;;;28.00;15.40;;;;;;;0.18;100.00;98171.99;110331;1241;69643;-68
2023/02/28 02:41:35;;;;;;;30.60;15.40;;;;;;;0.20;100.00;98172.66;110309;1241;69255;-68
2023/02/28 02:44:12;;;;;;;37.70;17.20;;;;;;;0.21;100.00;98175.02;110187;1251;68724;-68
2023/02/28 02:46:45;;;;;;;33.40;16.20;;;;;;;0.23;100.00;98174.98;110371;1242;58932;-69
2023/02/28 02:49:24;;;;;;;33.10;15.80;;;;;;;0.24;100.00;98168.45;110419;1241;58945;-68
2023/02/28 02:51:56;;;;;;;38.00;17.70;;;;;;;0.26;100.00;98168.59;110314;1243;70470;-68
2023/02/28 02:54:32;;;;;;;37.30;16.10;;;;;;;0.26;100.00;98169.79;110354;1239;69133;-68
2023/02/28 02:57:08;;;;;;;35.30;18.10;;;;;;;0.27;100.00;98168.40;110443;1249;69184;-68
2023/02/28 02:59:40;;;;;;;29.30;15.00;;;;;;;0.27;100.00;98172.86;110483;1249;58878;-68
2023/02/28 03:02:14;;;;;;;33.10;15.70;;;;;;;0.28;100.00;98174.21;110393;1244;58891;-68
2023/02/28 03:04:51;;;;;;;31.70;15.20;;;;;;;0.30;100.00;98176.05;110343;1242;70478;-68
2023/02/28 03:07:22;;;;;;;28.50;14.70;;;;;;;0.33;100.00;98178.06;110164;1246;69476;-68
2023/02/28 03:09:55;;;;;;;28.80;13.50;;;;;;;0.37;100.00;98176.77;110288;1249;70061;-68
2023/02/28 03:12:43;;;;;;;30.80;14.40;;;;;;;0.41;100.00;98178.76;110408;1242;58906;-68
2023/02/28 03:15:26;;;;;;;27.90;13.30;;;;;;;0.43;100.00;98177.35;110325;1242;58794;-67
2023/02/28 03:18:26;;;;;;;30.40;16.20;;;;;;;0.41;100.00;98181.83;110304;1242;70018;-68
2023/02/28 03:21:11;;;;;;;31.90;15.20;;;;;;;0.39;100.00;98175.54;110434;1243;69228;-68
2023/02/28 03:24:04;;;;;;;31.60;15.60;;;;;;;0.38;100.00;98179.33;110236;1239;68330;-67
2023/02/28 03:26:40;;;;;;;32.30;16.20;;;;;;;0.39;100.00;98185.99;110217;1245;58880;-68
2023/02/28 03:29:30;;;;;;;33.00;15.90;;;;;;;0.39;100.00;98182.56;110414;1243;58960;-68
2023/02/28 03:32:14;;;;;;;34.50;17.40;;;;;;;0.40;100.00;98182.03;110503;1242;70593;-68
2023/02/28 03:35:21;;;;;;;30.90;16.50;;;;;;;0.40;100.00;98184.41;110483;1242;68451;-70
2023/02/28 03:38:09;;;;;;;32.20;15.80;;;;;;;0.41;100.00;98181.82;110286;1241;69834;-70
2023/02/28 03:40:46;;;;;;;37.10;16.00;;;;;;;0.42;100.00;98183.71;110466;1244;58927;-69
2023/02/28 03:43:25;;;;;;;31.60;16.10;;;;;;;0.42;100.00;98184.05;110549;1242;58909;-67
2023/02/28 03:45:56;;;;;;;28.90;14.80;;;;;;;0.43;100.00;98179.23;110332;1242;69769;-67
2023/02/28 03:48:38;;;;;;;37.20;16.30;;;;;;;0.44;100.00;98174.06;110404;1241;69105;-68
2023/02/28 03:51:15;;;;;;;25.80;13.90;;;;;;;0.43;100.00;98185.23;110491;1241;69257;-68
2023/02/28 03:53:51;;;;;;;29.00;14.70;;;;;;;0.44;100.00;98187.92;110373;1242;58882;-68
2023/02/28 03:56:30;;;;;;;32.50;17.30;;;;;;;0.47;100.00;98186.00;110450;1242;58823;-68
2023/02/28 03:59:26;;;;;;;33.20;16.50;;;;;;;0.50;100.00;98183.20;110377;1242;70639;-68
2023/02/28 04:01:58;;;;;;;34.90;15.40;;;;;;;0.52;100.00;98185.07;110521;1241;69332;-68
2023/02/28 04:04:28;;;;;;;41.20;19.30;;;;;;;0.52;100.00;98186.61;110345;1242;68775;-68
2023/02/28 04:07:05;;;;;;;32.80;15.90;;;;;;;0.53;100.00;98185.20;110468;1242;58945;-68
2023/02/28 04:09:34;;;;;;;42.10;21.50;;;;;;;0.54;100.00;98191.89;110446;1241;58858;-68
2023/02/28 04:12:04;;;;;;;42.00;19.20;;;;;;;0.55;100.00;98199.92;110395;1242;71150;-68
2023/02/28 04:14:33;;;;;;;33.50;17.70;;;;;;;0.55;100.00;98201.96;110495;1242;69351;-68
2023/02/28 04:17:03;;;;;;;39.10;17.50;;;;;;;0.56;100.00;98199.21;110460;1242;68170;-68
2023/02/28 04:19:33;;;;;;;34.70;16.90;;;;;;;0.56;100.00;98194.58;110455;1242;58928;-68
2023/02/28 04:22:03;;;;;;;38.60;18.10;;;;;;;0.58;100.00;98191.79;110504;1242;58901;-68
2023/02/28 04:24:33;;;;;;;47.90;20.20;;;;;;;0.60;100.00;98191.41;110549;1242;69883;-68
2023/02/28 04:27:03;;;;;;;39.80;18.00;;;;;;;0.61;100.00;98192.09;110522;1248;69835;-68
2023/02/28 04:29:33;;;;;;;48.10;19.90;;;;;;;0.62;100.00;98193.79;110409;1241;68733;-68
2023/02/28 04:32:04;;;;;;;45.80;18.70;;;;;;;0.62;100.00;98184.16;110457;1242;58900;-68
2023/02/28 04:34:35;;;;;;;45.90;19.90;;;;;;;0.62;100.00;98180.74;110473;1248;58888;-68
2023/02/28 04:37:05;;;;;;;50.10;21.10;;;;;;;0.59;100.00;98176.49;110313;1242;70430;-68
2023/02/28 04:39:43;;;;;;;45.90;20.40;;;;;;;0.56;100.00;98175.36;110323;1241;69417;-68
2023/02/28 04:42:13;;;;;;;42.90;19.40;;;;;;;0.53;100.00;98178.50;110285;1243;68608;-68
2023/02/28 04:44:41;;;;;;;47.20;19.80;;;;;;;0.53;100.00;98176.65;110376;1241;58926;-68
2023/02/28 04:47:11;;;;;;;40.30;18.70;;;;;;;0.53;100.00;98171.16;110373;1242;58903;-68
2023/02/28 04:49:41;;;;;;;47.60;22.30;;;;;;;0.52;100.00;98170.48;110160;1240;70983;-68
2023/02/28 04:52:10;;;;;;;46.20;20.30;;;;;;;0.51;100.00;98174.10;110503;1244;69838;-68
2023/02/28 04:54:40;;;;;;;42.20;19.40;;;;;;;0.49;100.00;98178.42;110379;1241;69949;-68
2023/02/28 04:57:09;;;;;;;45.30;18.40;;;;;;;0.49;100.00;98179.78;110422;1249;58859;-68
2023/02/28 04:59:38;;;;;;;43.20;18.90;;;;;;;0.50;100.00;98175.30;110450;1243;58905;-67
2023/02/28 05:02:07;;;;;;;45.90;18.30;;;;;;;0.50;100.00;98169.66;110559;1242;69818;-68
2023/02/28 05:04:37;;;;;;;60.20;22.00;;;;;;;0.48;100.00;98168.31;110202;1251;69791;-67
2023/02/28 05:07:06;;;;;;;58.10;20.30;;;;;;;0.48;100.00;98169.69;110441;1242;69285;-69
2023/02/28 05:09:36;;;;;;;52.10;20.50;;;;;;;0.46;100.00;98176.08;110435;1241;58883;-67
2023/02/28 05:12:06;;;;;;;45.70;18.60;;;;;;;0.47;100.00;98179.15;110523;1241;58933;-69
2023/02/28 05:14:36;;;;;;;48.20;21.10;;;;;;;0.49;100.00;98184.59;110419;1241;70983;-69
2023/02/28 05:17:05;;;;;;;56.10;22.80;;;;;;;0.50;100.00;98183.52;110353;1243;69857;-69
2023/02/28 05:19:35;;;;;;;51.40;22.10;;;;;;;0.51;100.00;98187.14;110469;1242;69236;-69
2023/02/28 05:22:15;;;;;;;49.40;21.80;;;;;;;0.53;100.00;98192.77;110450;1241;58944;-69
2023/02/28 05:24:44;;;;;;;47.30;19.90;;;;;;;0.56;100.00;98195.62;110371;1243;58877;-68
2023/02/28 05:27:12;;;;;;;50.00;22.50;;;;;;;0.59;100.00;98197.95;110363;1242;70368;-68
2023/02/28 05:29:43;;;;;;;54.80;22.80;;;;;;;0.62;100.00;98194.45;110347;1239;70196;-68
2023/02/28 05:32:12;;;;;;;;;;;;;;;0.62;100.00;98198.56;110490;1242;69904;-68
2023/02/28 05:34:41;;;;;;;36.80;16.70;;;;;;;0.65;100.00;98206.05;110368;1242;58934;-67
2023/02/28 05:37:12;;;;;;;40.60;17.50;;;;;;;0.70;100.00;98213.33;110442;1242;58923;-68
2023/02/28 05:39:43;;;;;;;49.40;20.20;;;;;;;0.73;100.00;98212.23;110516;1241;71183;-68
2023/02/28 05:42:12;;;;;;;41.60;18.60;;;;;;;0.77;100.00;98215.06;110450;1243;69247;-67
2023/02/28 05:44:41;;;;;;;47.70;20.70;;;;;;;0.82;100.00;98224.75;110512;1241;70069;-67
2023/02/28 05:47:15;;;;;;;;;;;;;;;0.83;100.00;98221.29;110522;1241;58933;-67
2023/02/28 05:49:44;;;;;;;39.40;19.20;;;;;;;0.84;100.00;98223.50;110519;1240;58893;-69
2023/02/28 05:52:13;;;;;;;43.90;20.20;;;;;;;0.83;100.00;98223.19;110546;1242;70566;-69
2023/02/28 05:54:43;;;;;;;43.60;20.00;;;;;;;0.85;100.00;98224.00;110469;1241;68267;-69
2023/02/28 05:57:12;;;;;;;42.10;18.80;;;;;;;0.90;100.00;98223.02;110584;1241;69298;-68
2023/02/28 05:59:52;;;;;;;53.50;22.30;;;;;;;0.96;100.00;98229.95;110554;1242;59282;-69
2023/02/28 06:02:22;;;;;;;41.80;19.50;;;;;;;0.99;100.00;98229.20;110538;1241;58864;-68
2023/02/28 06:04:51;;;;;;;38.60;17.70;;;;;;;1.04;100.00;98232.35;110455;1242;71147;-68
2023/02/28 06:07:22;;;;;;;44.90;20.20;;;;;;;1.11;100.00;98227.21;110412;1242;69819;-67
2023/02/28 06:09:51;;;;;;;39.30;19.20;;;;;;;1.19;100.00;98226.52;110349;1242;69719;-68
2023/02/28 06:12:21;;;;;;;44.60;21.40;;;;;;;1.27;100.00;98225.14;110347;1242;58931;-67
2023/02/28 06:14:50;;;;;;;39.00;19.70;;;;;;;1.37;100.00;98229.21;110401;1244;58883;-67
2023/02/28 06:17:19;;;;;;;39.00;16.50;;;;;;;1.47;100.00;98236.35;110407;1242;69612;-67
2023/02/28 06:19:48;;;;;;;42.20;21.90;;;;;;;1.56;100.00;98234.61;110485;1242;69408;-68
2023/02/28 06:22:17;;;;;;;44.30;20.30;;;;;;;1.62;100.00;98232.93;110354;1242;68718;-68
2023/02/28 06:24:46;;;;;;;46.70;23.90;;;;;;;1.65;100.00;98232.15;110275;1242;58896;-67
2023/02/28 06:27:15;;;;;;;40.90;21.30;;;;;;;1.70;100.00;98234.28;110358;1241;58809;-68
2023/02/28 06:29:45;;;;;;;38.60;19.30;;;;;;;1.80;100.00;98231.96;110367;1244;70645;-68
2023/02/28 06:32:14;;;;;;;44.80;22.80;;;;;;;1.88;100.00;98230.24;110417;1242;69856;-67
2023/02/28 06:34:43;;;;;;;40.20;22.30;;;;;;;1.96;100.00;98229.34;110321;1241;69376;-68
2023/02/28 06:37:12;;;;;;;41.00;22.40;;;;;;;2.06;100.00;98231.15;110366;1241;58890;-69
2023/02/28 06:39:42;;;;;;;38.60;21.40;;;;;;;2.12;100.00;98238.56;110385;1241;58877;-68
2023/02/28 06:42:10;;;;;;;32.80;18.40;;;;;;;2.18;100.00;98235.67;110421;1242;71240;-69
2023/02/28 06:44:39;;;;;;;33.00;18.90;;;;;;;2.25;100.00;98241.48;110491;1241;69341;-68
2023/02/28 06:47:08;;;;;;;29.30;18.00;;;;;;;2.35;100.00;98241.39;110412;1241;70033;-69
2023/02/28 06:49:38;;;;;;;31.00;18.50;;;;;;;2.41;100.00;98237.29;110453;1241;58919;-69
2023/02/28 06:52:08;;;;;;;33.90;20.10;;;;;;;2.43;100.00;98241.52;110455;1241;58819;-68
2023/02/28 06:54:37;;;;;;;34.00;18.20;;;;;;;2.40;100.00;98246.75;110446;1242;71044;-67
2023/02/28 06:57:06;;;;;;;29.70;18.00;;;;;;;2.42;100.00;98245.00;110536;1242;69804;-67
2023/02/28 06:59:36;;;;;;;32.70;17.70;;;;;;;2.42;100.00;98242.60;110363;1241;69249;-68
2023/02/28 07:02:06;;;;;;;31.80;17.30;;;;;;;2.43;100.00;98243.59;110275;1241;58805;-68
2023/02/28 07:04:35;;;;;;;26.70;15.80;;;;;;;2.50;100.00;98245.48;110375;1241;58870;-67
2023/02/28 07:07:04;;;;;;;34.80;18.10;;;;;;;2.58;100.00;98249.55;110436;1241;69721;-68
2023/02/28 07:22:29;;;;;;;32.40;19.40;;;;;;;3.28;100.00;98249.40;107350;1270;609487;-68
2023/02/28 07:24:58;;;;;;;27.80;17.60;;;;;;;3.42;100.00;98254.52;108926;1251;315725;-67
2023/02/28 07:27:28;;;;;;;25.50;15.60;;;;;;;3.57;100.00;98252.82;109285;1254;58156;-69
2023/02/28 07:29:57;;;;;;;25.40;14.10;;;;;;;3.76;100.00;98248.78;109313;1251;67976;-67
2023/02/28 07:32:26;;;;;;;22.30;13.60;;;;;;;3.93;100.00;98251.02;109341;1254;69890;-68
2023/02/28 07:34:55;;;;;;;24.10;13.80;;;;;;;4.05;100.00;98252.83;109354;1251;69253;-68
2023/02/28 07:37:24;;;;;;;20.90;13.10;;;;;;;4.18;98.91;98254.49;109367;1254;57716;-68
2023/02/28 07:39:53;;;;;;;20.10;13.80;;;;;;;4.34;99.74;98254.80;109378;1254;57680;-68
2023/02/28 07:42:21;;;;;;;21.20;12.80;;;;;;;4.49;100.00;98257.39;109374;1254;68640;-68
2023/02/28 07:44:52;;;;;;;;;;;;;;;4.64;98.10;98259.27;109427;1255;68097;-68
2023/02/28 07:47:21;;;;;;;21.90;13.60;;;;;;;4.75;93.38;98260.45;109372;1251;69581;-68
2023/02/28 07:49:52;;;;;;;25.40;14.20;;;;;;;4.80;90.50;98257.83;109316;1251;58160;-68
2023/02/28 07:52:23;;;;;;;23.90;15.60;;;;;;;5.05;92.16;98255.54;109323;1254;58076;-68
2023/02/28 07:54:52;;;;;;;31.40;17.00;;;;;;;5.20;90.87;98251.34;109365;1254;70193;-68
2023/02/28 07:57:21;;;;;;;26.50;17.70;;;;;;;5.44;89.98;98253.35;109389;1254;69204;-68
2023/02/28 07:59:50;;;;;;;24.70;16.70;;;;;;;5.83;88.79;98247.51;109404;1251;69255;-68
2023/02/28 08:02:19;;;;;;;28.00;19.00;;;;;;;6.29;92.12;98252.91;109405;1251;58131;-68
2023/02/28 08:04:49;;;;;;;27.30;17.80;;;;;;;6.73;87.13;98252.41;109321;1254;58034;-68
2023/02/28 08:07:18;;;;;;;25.70;17.50;;;;;;;7.44;84.70;98248.15;109287;1254;69785;-68
2023/02/28 08:09:47;;;;;;;27.90;17.30;;;;;;;8.01;80.25;98246.10;109360;1251;68901;-68
2023/02/28 08:12:16;;;;;;;20.30;14.90;;;;;;;8.78;76.69;98247.46;109356;1254;69869;-68
2023/02/28 08:14:46;;;;;;;22.60;15.70;;;;;;;9.30;74.30;98247.29;109309;1254;58125;-68
2023/02/28 08:17:15;;;;;;;17.60;13.40;;;;;;;9.76;70.26;98250.28;109317;1254;58091;-68
2023/02/28 08:19:47;;;;;;;18.40;12.70;;;;;;;9.85;67.95;98251.20;109772;1244;70339;-68
2023/02/28 08:22:16;;;;;;;17.90;13.60;;;;;;;10.35;67.59;98254.27;109774;1246;69807;-68
2023/02/28 08:24:44;;;;;;;16.40;12.60;;;;;;;10.49;65.51;98254.64;109743;1244;69255;-68
2023/02/28 08:27:14;;;;;;;17.70;14.00;;;;;;;10.55;64.35;98253.96;109759;1245;58137;-68
2023/02/28 08:29:43;;;;;;;18.90;12.60;;;;;;;10.52;64.40;98247.86;109785;1246;58078;-69
2023/02/28 08:32:11;;;;;;;16.50;11.80;;;;;;;11.37;66.10;98248.09;109792;1248;69580;-67
2023/02/28 08:34:57;;;;;;;13.70;11.20;;;;;;;11.68;59.95;98242.82;109786;1247;70213;-70
2023/02/28 08:37:26;;;;;;;13.20;10.60;;;;;;;11.73;59.35;98242.52;109721;1247;69196;-69
2023/02/28 08:39:55;;;;;;;14.10;11.60;;;;;;;11.54;56.94;98240.73;109754;1245;58079;-70
2023/02/28 08:42:24;;;;;;;15.00;11.80;;;;;;;11.08;58.42;98244.48;109850;1247;58553;-67
2023/02/28 08:44:53;;;;;;;14.60;11.30;;;;;;;11.28;60.13;98244.48;109879;1244;70223;-70
2023/02/28 08:47:23;;;;;;;13.10;10.60;;;;;;;11.06;60.10;98246.15;109759;1247;69816;-69
2023/02/28 08:49:52;;;;;;;16.10;12.40;;;;;;;10.97;61.65;98245.66;109750;1244;70296;-68
2023/02/28 08:52:21;;;;;;;12.90;10.60;;;;;;;11.11;62.66;98247.96;109794;1247;58201;-69
2023/02/28 08:54:49;;;;;;;14.90;11.50;;;;;;;11.34;61.73;98244.63;109840;1247;58033;-69
2023/02/28 08:57:19;;;;;;;14.70;11.90;;;;;;;11.66;61.41;98244.16;109798;1244;70162;-68
2023/02/28 08:59:48;;;;;;;16.70;12.30;;;;;;;11.61;61.60;98242.89;109847;1246;69773;-69
2023/02/28 09:02:16;;;;;;;13.70;11.70;;;;;;;11.61;61.17;98245.33;109823;1248;69843;-68
2023/02/28 09:04:45;;;;;;;13.10;10.60;;;;;;;11.64;62.70;98248.33;109754;1245;58100;-68
2023/02/28 09:07:15;;;;;;;14.30;11.90;;;;;;;11.48;61.03;98255.24;109845;1246;58030;-68
2023/02/28 09:09:53;;;;;;;13.70;10.30;;;;;;;10.99;60.12;98260.05;109768;1244;70383;-69
2023/02/28 09:12:24;;;;;;;14.00;9.80;;;;;;;10.76;58.98;98259.30;109760;1247;69637;-70
2023/02/28 09:14:53;;;;;;;13.30;9.50;;;;;;;10.25;60.10;98254.32;109771;1246;69859;-70
2023/02/28 09:17:22;;;;;;;12.30;9.80;;;;;;;10.10;60.86;98257.45;109789;1245;58152;-69
2023/02/28 09:19:58;;;;;;;12.40;9.60;;;;;;;9.54;62.12;98257.06;109752;1247;58078;-70
2023/02/28 09:22:27;;;;;;;15.40;10.80;;;;;;;9.37;62.19;98257.48;109910;1244;70335;-69
2023/02/28 09:24:56;;;;;;;12.10;9.50;;;;;;;9.11;62.42;98256.66;109952;1246;69660;-70
2023/02/28 09:27:25;;;;;;;11.70;9.00;;;;;;;8.98;63.51;98256.48;110064;1247;69885;-69
2023/02/28 09:29:53;;;;;;;15.00;10.80;;;;;;;8.75;64.48;98260.13;109845;1244;58076;-68
2023/02/28 09:32:22;;;;;;;13.90;10.70;;;;;;;8.71;64.65;98256.69;109991;1245;58118;-70
2023/02/28 09:34:51;;;;;;;11.60;9.50;;;;;;;8.45;65.00;98260.78;109768;1247;69775;-68
2023/02/28 09:37:20;;;;;;;12.80;9.50;;;;;;;8.06;66.57;98252.45;109959;1247;69116;-68
2023/02/28 09:39:49;;;;;;;13.90;10.40;;;;;;;8.03;67.48;98253.66;109783;1245;70230;-69
2023/02/28 09:42:24;;;;;;;14.20;10.80;;;;;;;8.10;67.30;98253.48;110200;1240;58572;-69
2023/02/28 09:44:56;;;;;;;13.50;10.50;;;;;;;8.10;67.65;98250.36;110226;1242;58081;-69
2023/02/28 09:47:39;;;;;;;12.10;8.70;;;;;;;8.26;67.95;98247.09;110210;1241;70385;-69
2023/02/28 09:50:23;;;;;;;12.30;8.90;;;;;;;8.37;66.89;98245.53;110195;1242;69155;-68
2023/02/28 09:52:53;;;;;;;12.30;8.70;;;;;;;8.35;65.63;98243.70;110151;1242;69853;-68
2023/02/28 09:55:54;;;;;;;11.60;8.60;;;;;;;8.61;65.66;98238.56;110132;1241;58148;-69
2023/02/28 09:58:28;;;;;;;10.80;7.50;;;;;;;8.76;66.11;98240.06;110213;1242;58070;-69
2023/02/28 10:01:21;;;;;;;10.60;7.80;;;;;;;9.15;66.61;98235.37;110136;1242;70338;-69
2023/02/28 10:04:04;;;;;;;11.20;7.90;;;;;;;9.60;63.43;98230.31;110214;1242;69189;-69
2023/02/28 10:06:43;;;;;;;9.70;7.50;;;;;;;9.99;63.12;98226.38;110216;1242;69275;-68
2023/02/28 10:09:30;;;;;;;9.60;7.40;;;;;;;10.27;61.29;98226.50;110224;1242;58102;-70
2023/02/28 10:12:06;;;;;;;13.20;7.30;;;;;;;10.59;59.49;98224.63;110226;1242;58107;-68
2023/02/28 10:14:36;;;;;;;8.90;6.10;;;;;;;10.92;61.65;98224.02;110177;1241;69304;-68
2023/02/28 10:17:39;;;;;;;9.90;7.00;;;;;;;10.82;58.99;98217.50;110196;1242;68612;-70
2023/02/28 10:20:30;;;;;;;7.80;6.30;;;;;;;11.21;60.09;98211.38;110210;1242;69790;-68
2023/02/28 10:23:23;;;;;;;8.80;6.80;;;;;;;11.23;57.06;98203.45;110244;1242;58137;-70
2023/02/28 10:26:17;;;;;;;5.90;5.10;;;;;;;10.86;56.06;98207.64;110247;1241;58078;-68
2023/02/28 10:28:46;;;;;;;8.90;6.30;;;;;;;10.86;56.01;98203.80;110100;1244;70219;-68
2023/02/28 10:31:20;;;;;;;8.30;6.40;;;;;;;10.32;56.97;98202.49;110212;1242;69810;-70
2023/02/28 10:33:50;;;;;;;8.40;6.40;;;;;;;10.44;58.24;98204.63;110234;1242;69266;-70
2023/02/28 10:36:20;;;;;;;8.10;6.80;;;;;;;10.33;58.97;98203.16;110191;1245;58172;-69
2023/02/28 10:38:50;;;;;;;11.00;8.70;;;;;;;10.45;59.45;98203.66;110255;1242;58083;-69
2023/02/28 10:41:36;;;;;;;10.60;7.60;;;;;;;10.34;59.84;98205.02;110250;1241;70410;-69
2023/02/28 10:44:22;;;;;;;8.80;7.00;;;;;;;10.23;60.35;98200.25;110210;1241;68381;-69
2023/02/28 10:46:51;;;;;;;9.40;7.40;;;;;;;10.02;59.97;98197.77;110184;1248;69252;-69
2023/02/28 10:49:24;;;;;;;9.90;7.50;;;;;;;9.65;60.99;98195.56;110197;1241;58138;-69
2023/02/28 10:51:59;;;;;;;9.60;7.30;;;;;;;9.34;61.31;98193.34;110206;1241;58050;-69
2023/02/28 10:54:37;;;;;;;10.70;7.70;;;;;;;9.02;62.83;98190.91;110244;1240;69708;-69
2023/02/28 10:57:18;;;;;;;10.80;7.90;;;;;;;8.84;63.37;98188.19;110188;1242;69167;-69
2023/02/28 10:59:54;;;;;;;7.70;5.90;;;;;;;8.62;64.77;98191.47;110180;1241;69873;-68
2023/02/28 11:02:42;;;;;;;10.30;6.70;;;;;;;8.60;65.47;98186.52;110144;1240;58123;-68
2023/02/28 11:05:32;;;;;;;9.70;6.80;;;;;;;8.78;65.86;98185.22;110193;1242;58588;-69
2023/02/28 11:08:12;;;;;;;7.60;6.20;;;;;;;8.96;65.86;98180.27;110199;1242;69964;-68
2023/02/28 11:10:54;;;;;;;7.70;5.50;;;;;;;9.07;66.01;98176.68;110303;1240;69760;-68
2023/02/28 11:13:31;;;;;;;9.50;6.40;;;;;;;8.87;65.08;98179.39;110336;1240;70309;-69
2023/02/28 11:16:05;;;;;;;9.10;6.70;;;;;;;8.94;66.90;98176.73;110401;1241;58071;-70
2023/02/28 11:18:42;;;;;;;9.30;6.90;;;;;;;8.81;68.45;98179.89;110379;1239;58020;-68
2023/02/28 11:21:40;;;;;;;9.80;7.40;;;;;;;8.54;66.81;98177.98;110395;1241;69553;-68
2023/02/28 11:24:22;;;;;;;10.10;6.90;;;;;;;8.55;66.62;98178.11;110287;1249;68769;-68
2023/02/28 11:26:52;;;;;;;9.30;6.50;;;;;;;8.59;68.67;98179.60;110238;1241;69284;-68
2023/02/28 11:29:27;;;;;;;8.10;6.30;;;;;;;8.64;68.04;98183.00;110183;1242;58120;-67
2023/02/28 11:32:21;;;;;;;9.90;6.80;;;;;;;8.61;67.83;98180.22;110321;1241;58079;-68
2023/02/28 11:35:11;;;;;;;8.60;6.10;;;;;;;8.58;68.94;98184.00;110246;1241;68799;-68
2023/02/28 11:37:42;;;;;;;9.30;6.60;;;;;;;8.56;68.68;98181.89;110289;1241;69841;-68
2023/02/28 11:40:22;;;;;;;9.00;6.70;;;;;;;8.49;69.04;98183.48;110289;1241;69873;-67
2023/02/28 11:43:05;;;;;;;8.10;6.60;;;;;;;8.44;68.53;98185.96;110261;1241;58866;-67
2023/02/28 11:45:53;;;;;;;7.80;6.10;;;;;;;8.40;68.86;98186.86;110327;1241;58925;-67
2023/02/28 11:48:27;;;;;;;9.40;6.50;;;;;;;8.38;69.24;98182.44;110353;1241;70543;-69
2023/02/28 11:50:59;;;;;;;8.70;6.40;;;;;;;8.44;69.38;98180.95;110310;1241;68738;-69
2023/02/28 11:53:53;;;;;;;8.60;6.40;;;;;;;8.50;69.51;98179.38;110291;1240;69859;-68
2023/02/28 11:57:14;;;;;;;7.90;5.90;;;;;;;8.61;69.12;98175.35;110299;1241;58924;-68
2023/02/28 12:00:07;;;;;;;9.10;6.90;;;;;;;8.69;67.53;98169.39;109421;1241;58943;-68
2023/02/28 12:02:54;;;;;;;11.10;6.80;;;;;;;8.78;69.64;98166.30;110254;1239;71164;-68